»·PEaware :: N421GM KSDM-KSNA

N421GM :: KSDM-KSNA

FLIGHT INFORMATION

Flight Status: Arrived
Operator: Privately registered:
United States
More flights under this callsign
Pilot: Greg M. (25475)
Aircraft: CESSNA 182 SKYLANE
(C182)
More flights by this aircraft type
Origin: KSDM Brown Mun
United States
Destination: KSNA John Wayne-Orange Co
United States
More flights between these airports :: More routes between these airports
Route: +MZB V23 SLI
File this flight plan on PilotEdge
Remarks:
Altitude:
(Current/Filed)
6,000ft
Speed:
(Current/Filed)
0kts
Departed: 08-Feb-20 06:14 PM
Arrived: 08-Feb-20 07:10 PM
Distance/Time
Traveled:
80nm/0:56
Distance/Time
To Go:
Arrived

Flight Plot

Page will automatically refresh every two minutes.


Map Options




Map Legend


Flown Route
Filed Route
Departure Airport
Arrival Airport
Navaid (VOR, NDB)
Fix

Horizontal Profiles

Position Reports

Time Latitude Longitude Heading Altitude Ground
Speed
08-Feb-20 17:57 32.570621 -116.984982 282 519ft 0kts
08-Feb-20 17:58 32.570621 -116.984982 282 519ft 0kts
08-Feb-20 17:59 32.570621 -116.984982 282 519ft 0kts
08-Feb-20 18:00 32.570621 -116.984982 282 519ft 0kts
08-Feb-20 18:01 32.570621 -116.984982 282 519ft 0kts
08-Feb-20 18:02 32.570621 -116.984982 282 519ft 0kts
08-Feb-20 18:03 32.570621 -116.984982 282 519ft 0kts
08-Feb-20 18:04 32.570621 -116.984982 282 519ft 0kts
08-Feb-20 18:05 32.570816 -116.984871 92 519ft 0kts
08-Feb-20 18:06 32.570745 -116.984473 102 519ft 11kts
08-Feb-20 18:08 32.570099 -116.977721 95 511ft 25kts
08-Feb-20 18:09 32.569428 -116.969423 97 508ft 23kts
08-Feb-20 18:10 32.569763 -116.968476 9 508ft 0kts
08-Feb-20 18:11 32.569763 -116.968476 9 508ft 0kts
08-Feb-20 18:12 32.569763 -116.968476 9 508ft 0kts
08-Feb-20 18:13 32.570154 -116.968422 4 508ft 15kts
08-Feb-20 18:14 32.572956 -116.982976 273 710ft 100kts
08-Feb-20 18:15 32.582747 -117.017013 291 1415ft 124kts
08-Feb-20 18:16 32.597034 -117.053396 291 1957ft 119kts
08-Feb-20 18:17 32.611215 -117.088547 291 2547ft 117kts
08-Feb-20 18:18 32.625783 -117.123900 291 2988ft 130kts
08-Feb-20 18:19 32.642234 -117.164593 291 2992ft 139kts
08-Feb-20 18:20 32.657925 -117.203246 299 3592ft 126kts
08-Feb-20 18:21 32.690431 -117.214628 10 4216ft 131kts
08-Feb-20 18:22 32.726636 -117.215673 350 4849ft 131kts
08-Feb-20 18:23 32.763075 -117.222021 352 5478ft 133kts
08-Feb-20 18:24 32.799236 -117.231518 338 5974ft 142kts
08-Feb-20 18:25 32.838571 -117.249176 338 5973ft 156kts
08-Feb-20 18:26 32.879826 -117.266797 342 5969ft 158kts
08-Feb-20 18:27 32.921558 -117.283874 340 5964ft 158kts
08-Feb-20 18:27 32.956182 -117.298407 339 5963ft 158kts
08-Feb-20 18:28 32.997696 -117.316384 340 5958ft 158kts
08-Feb-20 18:30 33.046406 -117.336784 340 5957ft 158kts
08-Feb-20 18:30 33.081021 -117.351345 340 5952ft 159kts
08-Feb-20 18:31 33.121668 -117.368436 340 6012ft 155kts
08-Feb-20 18:32 33.162804 -117.385731 340 6012ft 157kts
08-Feb-20 18:33 33.204304 -117.403210 340 6008ft 158kts
08-Feb-20 18:34 33.245214 -117.421949 324 6003ft 157kts
08-Feb-20 18:35 33.275655 -117.459411 312 5986ft 157kts
08-Feb-20 18:36 33.306866 -117.495920 313 5986ft 156kts
08-Feb-20 18:37 33.338210 -117.532426 313 5982ft 157kts
08-Feb-20 18:38 33.369446 -117.568902 313 5981ft 157kts
08-Feb-20 18:39 33.400753 -117.605385 315 5976ft 157kts
08-Feb-20 18:40 33.432404 -117.641450 313 5975ft 157kts
08-Feb-20 18:41 33.463435 -117.677747 313 6013ft 155kts
08-Feb-20 18:42 33.494605 -117.714296 313 6009ft 156kts
08-Feb-20 18:43 33.517572 -117.749790 301 5613ft 114kts
08-Feb-20 18:44 33.537172 -117.782005 301 5174ft 123kts
08-Feb-20 18:45 33.558500 -117.817163 301 5006ft 143kts
08-Feb-20 18:46 33.582523 -117.857273 301 5003ft 150kts
08-Feb-20 18:47 33.607078 -117.898308 301 4999ft 151kts
08-Feb-20 18:48 33.631752 -117.939539 301 4996ft 151kts
08-Feb-20 18:49 33.658125 -117.978788 336 4989ft 155kts
08-Feb-20 18:50 33.699912 -117.969493 21 4985ft 155kts
08-Feb-20 18:51 33.740499 -117.951474 22 4979ft 155kts
08-Feb-20 18:52 33.781108 -117.933389 22 4979ft 155kts
08-Feb-20 18:53 33.821695 -117.915295 21 4974ft 155kts
08-Feb-20 18:54 33.862416 -117.897125 21 4972ft 155kts
08-Feb-20 18:55 33.899152 -117.880732 21 4326ft 132kts
08-Feb-20 18:56 33.921892 -117.852217 90 3991ft 136kts
08-Feb-20 18:57 33.923574 -117.804857 91 3988ft 144kts
08-Feb-20 18:58 33.913099 -117.763418 159 3884ft 133kts
08-Feb-20 18:59 33.878768 -117.754682 171 3286ft 126kts
08-Feb-20 19:00 33.848235 -117.758856 206 2866ft 109kts
08-Feb-20 19:01 33.823502 -117.774867 208 2655ft 94kts
08-Feb-20 19:02 33.803378 -117.787987 207 2756ft 87kts
08-Feb-20 19:03 33.781020 -117.801695 209 2194ft 87kts
08-Feb-20 19:04 33.760115 -117.814967 208 1730ft 85kts
08-Feb-20 19:05 33.738993 -117.828834 209 1371ft 88kts
08-Feb-20 19:06 33.716983 -117.842565 208 815ft 87kts
08-Feb-20 19:07 33.696795 -117.855342 211 469ft 69kts
08-Feb-20 19:08 33.680286 -117.865936 208 68ft 61kts
08-Feb-20 19:09 33.674343 -117.870978 308 62ft 0kts
08-Feb-20 19:10 33.674570 -117.871492 301 62ft 9kts

Navigation Log

Ident Type
Flight plan parsing failed, navigation log unavailable